Time;durP1;ratioP1;P1;durP2;ratioP2;P2;SDS_P1;SDS_P2;PMS_P1;PMS_P2;Temp;Humidity;BMP_temperature;BMP_pressure;BME280_temperature;BME280_humidity;BME280_pressure;Samples;Min_cycle;Max_cycle;Signal;HPM_P1;HPM_P2
2021/04/01 00:01:07;;;;;;;;;;;;;;;;;;5035117;28;977;-65
2021/04/01 00:03:33;;;;;;;;;;;;;;;;;;5038458;28;1914;-65
2021/04/01 00:05:58;;;;;;;;;;;;;;;;;;5037355;28;1822;-64
2021/04/01 00:08:24;;;;;;;;;;;;;;;;;;5042977;28;1200;-64
2021/04/01 00:10:49;;;;;;;;;;;;;;;;;;5033590;28;1937;-64
2021/04/01 00:13:15;;;;;;;;;;;;;;;;;;5042084;28;1718;-65
2021/04/01 00:15:41;;;;;;;;;;;;;;;;;;5047430;28;1246;-65
2021/04/01 00:18:17;;;;;;;;;;;;;;;;;;5039494;28;1975;-64
2021/04/01 00:20:43;;;;;;;;;;;;;;;;;;5042635;28;1737;-65
2021/04/01 00:23:09;;;;;;;;;;;;;;;;;;5041338;28;1905;-65
2021/04/01 00:25:34;;;;;;;;;;;;;;;;;;5041217;28;959;-65
2021/04/01 00:28:00;;;;;;;;;;;;;;;;;;5036137;28;1988;-65
2021/04/01 00:30:26;;;;;;;;;;;;;;;;;;5039171;28;1715;-65
2021/04/01 00:32:51;;;;;;;;;;;;;;;;;;5044187;28;1889;-65
2021/04/01 00:35:17;;;;;;;;;;;;;;;;;;5033542;28;1432;-65
2021/04/01 00:37:43;;;;;;;;;;;;;;;;;;5044886;28;1798;-65
2021/04/01 00:40:08;;;;;;;;;;;;;;;;;;5043540;28;1667;-65
2021/04/01 00:42:34;;;;;;;;;;;;;;;;;;5035561;28;1088;-64
2021/04/01 00:45:01;;;;;;;;;;;;;;;;;;5039675;28;1894;-65
2021/04/01 00:47:31;;;;;;;;;;;;;;;;;;5040707;28;1714;-65
2021/04/01 00:49:56;;;;;;;;;;;;;;;;;;5034421;28;1739;-65
2021/04/01 00:52:24;;;;;;;;;;;;;;;;;;5037028;28;1758;-65
2021/04/01 00:54:49;;;;;;;;;;;;;;;;;;5038096;28;1128;-65
2021/04/01 00:57:15;;;;;;;;;;;;;;;;;;5041798;28;1794;-66
2021/04/01 00:59:40;;;;;;;;;;;;;;;;;;5035347;28;1060;-65
2021/04/01 01:02:05;;;;;;;;;;;;;;;;;;5037339;28;1798;-64
2021/04/01 01:04:31;;;;;;;;;;;;;;;;;;5036460;28;1918;-65
2021/04/01 01:06:57;;;;;;;;;;;;;;;;;;5035455;28;1719;-64
2021/04/01 01:09:23;;;;;;;;;;;;;;;;;;5038975;28;1128;-64
2021/04/01 01:11:48;;;;;;;;;;;;;;;;;;5037729;28;1783;-65
2021/04/01 01:14:14;;;;;;;;;;;;;;;;;;5038071;28;1703;-65
2021/04/01 01:16:40;;;;;;;;;;;;;;;;;;5040072;28;1021;-65
2021/04/01 01:19:06;;;;;;;;;;;;;;;;;;5037798;28;1945;-65
2021/04/01 01:21:31;;;;;;;;;;;;;;;;;;5041238;28;1893;-66
2021/04/01 01:23:58;;;;;;;;;;;;;;;;;;5038318;28;1913;-65
2021/04/01 01:26:23;;;;;;;;;;;;;;;;;;5039359;28;1808;-65
2021/04/01 01:28:49;;;;;;;;;;;;;;;;;;5028351;28;1754;-64
2021/04/01 01:31:16;;;;;;;;;;;;;;;;;;5032129;28;1073;-65
2021/04/01 01:33:43;;;;;;;;;;;;;;;;;;5042762;28;1790;-65
2021/04/01 01:36:09;;;;;;;;;;;;;;;;;;5035228;28;974;-65
2021/04/01 01:38:35;;;;;;;;;;;;;;;;;;5038887;28;1937;-64
2021/04/01 01:41:01;;;;;;;;;;;;;;;;;;5040806;28;1785;-65
2021/04/01 01:43:26;;;;;;;;;;;;;;;;;;5035828;28;1973;-64
2021/04/01 01:45:52;;;;;;;;;;;;;;;;;;5040030;28;1041;-64
2021/04/01 01:48:17;;;;;;;;;;;;;;;;;;5037578;28;1846;-65
2021/04/01 01:50:43;;;;;;;;;;;;;;;;;;5031378;28;1694;-65
2021/04/01 01:53:09;;;;;;;;;;;;;;;;;;5036061;28;1816;-65
2021/04/01 01:55:36;;;;;;;;;;;;;;;;;;5041890;28;1156;-64
2021/04/01 01:58:03;;;;;;;;;;;;;;;;;;5044191;28;1718;-66
2021/04/01 02:00:33;;;;;;;;;;;;;;;;;;5044776;28;1782;-66
2021/04/01 02:03:00;;;;;;;;;;;;;;;;;;5044690;28;1949;-64
2021/04/01 02:05:26;;;;;;;;;;;;;;;;;;5044796;28;1894;-67
2021/04/01 02:07:52;;;;;;;;;;;;;;;;;;5042999;28;1949;-65
2021/04/01 02:10:18;;;;;;;;;;;;;;;;;;5042077;28;1642;-65
2021/04/01 02:12:44;;;;;;;;;;;;;;;;;;5050130;28;1061;-66
2021/04/01 02:15:11;;;;;;;;;;;;;;;;;;5042521;28;1913;-65
2021/04/01 02:17:37;;;;;;;;;;;;;;;;;;5045819;28;1706;-66
2021/04/01 02:20:03;;;;;;;;;;;;;;;;;;5045324;28;1783;-65
2021/04/01 02:22:28;;;;;;;;;;;;;;;;;;5045590;28;986;-65
2021/04/01 02:24:54;;;;;;;;;;;;;;;;;;5045871;28;2018;-66
2021/04/01 02:27:19;;;;;;;;;;;;;;;;;;5048174;28;1703;-68
2021/04/01 02:29:47;;;;;;;;;;;;;;;;;;5043987;28;1840;-64
2021/04/01 02:32:13;;;;;;;;;;;;;;;;;;5042561;28;967;-65
2021/04/01 02:34:39;;;;;;;;;;;;;;;;;;5037945;28;1692;-65
2021/04/01 02:37:05;;;;;;;;;;;;;;;;;;5044613;28;1690;-66
2021/04/01 02:39:30;;;;;;;;;;;;;;;;;;5047336;28;982;-67
2021/04/01 02:41:55;;;;;;;;;;;;;;;;;;5045486;28;1814;-69
2021/04/01 02:44:21;;;;;;;;;;;;;;;;;;5042126;28;1971;-67
2021/04/01 02:46:46;;;;;;;;;;;;;;;;;;5045752;28;1009;-69
2021/04/01 02:49:12;;;;;;;;;;;;;;;;;;5045196;28;1835;-65
2021/04/01 02:51:40;;;;;;;;;;;;;;;;;;5045808;28;1918;-68
2021/04/01 02:54:06;;;;;;;;;;;;;;;;;;5044990;28;1726;-67
2021/04/01 02:56:31;;;;;;;;;;;;;;;;;;5043582;28;1053;-64
2021/04/01 02:58:56;;;;;;;;;;;;;;;;;;5041132;28;1715;-64
2021/04/01 03:01:23;;;;;;;;;;;;;;;;;;5044424;28;1747;-64
2021/04/01 03:03:51;;;;;;;;;;;;;;;;;;5035481;28;1894;-67
2021/04/01 03:06:16;;;;;;;;;;;;;;;;;;5043805;28;957;-65
2021/04/01 03:08:42;;;;;;;;;;;;;;;;;;5042265;28;1915;-65
2021/04/01 03:11:08;;;;;;;;;;;;;;;;;;5039686;28;1703;-64
2021/04/01 03:13:33;;;;;;;;;;;;;;;;;;5034287;28;1853;-64
2021/04/01 03:15:59;;;;;;;;;;;;;;;;;;5046839;28;1117;-64
2021/04/01 03:18:24;;;;;;;;;;;;;;;;;;5042094;28;1901;-64
2021/04/01 03:20:50;;;;;;;;;;;;;;;;;;5045949;28;1703;-67
2021/04/01 03:23:16;;;;;;;;;;;;;;;;;;5031662;28;1960;-65
2021/04/01 03:25:42;;;;;;;;;;;;;;;;;;5047708;28;978;-64
2021/04/01 03:28:09;;;;;;;;;;;;;;;;;;5038507;28;989;-65
2021/04/01 03:30:37;;;;;;;;;;;;;;;;;;5044901;28;1711;-64
2021/04/01 03:33:02;;;;;;;;;;;;;;;;;;5041231;28;1992;-63
2021/04/01 03:35:28;;;;;;;;;;;;;;;;;;5033954;28;1013;-64
2021/04/01 03:37:57;;;;;;;;;;;;;;;;;;5044925;28;1802;-64
2021/04/01 03:40:23;;;;;;;;;;;;;;;;;;5043103;28;1877;-64
2021/04/01 03:42:49;;;;;;;;;;;;;;;;;;5034548;28;1081;-64
2021/04/01 03:45:15;;;;;;;;;;;;;;;;;;5038021;28;1992;-66
2021/04/01 03:47:41;;;;;;;;;;;;;;;;;;5040907;28;1810;-65
2021/04/01 03:50:08;;;;;;;;;;;;;;;;;;5032648;28;1900;-64
2021/04/01 03:52:34;;;;;;;;;;;;;;;;;;5034539;28;1936;-64
2021/04/01 03:55:10;;;;;;;;;;;;;;;;;;5044653;28;1706;-64
2021/04/01 03:57:36;;;;;;;;;;;;;;;;;;5040307;28;1228;-64
2021/04/01 04:15:31;;;;;;;;;;;;;;;;;;5039366;28;1022;-64
2021/04/01 04:17:57;;;;;;;;;;;;;;;;;;5034415;28;1830;-65
2021/04/01 04:20:22;;;;;;;;;;;;;;;;;;5044342;28;1786;-65
2021/04/01 04:22:50;;;;;;;;;;;;;;;;;;5037357;28;1100;-64
2021/04/01 04:25:15;;;;;;;;;;;;;;;;;;5036600;28;1992;-64
2021/04/01 04:30:13;;;;;;;;;;;;;;;;;;5040447;28;1785;-65
2021/04/01 04:32:39;;;;;;;;;;;;;;;;;;5037788;28;961;-66
2021/04/01 04:35:04;;;;;;;;;;;;;;;;;;5030329;28;1945;-65
2021/04/01 04:37:30;;;;;;;;;;;;;;;;;;5040992;28;1703;-64
2021/04/01 04:39:55;;;;;;;;;;;;;;;;;;5041442;28;985;-65
2021/04/01 04:42:21;;;;;;;;;;;;;;;;;;5032900;28;1749;-64
2021/04/01 04:44:47;;;;;;;;;;;;;;;;;;5033715;28;1902;-65
2021/04/01 04:47:13;;;;;;;;;;;;;;;;;;5040762;28;1774;-65
2021/04/01 04:49:38;;;;;;;;;;;;;;;;;;5036727;28;898;-64
2021/04/01 04:52:04;;;;;;;;;;;;;;;;;;5043612;28;1940;-64
2021/04/01 04:54:30;;;;;;;;;;;;;;;;;;5043677;28;1919;-64
2021/04/01 04:56:59;;;;;;;;;;;;;;;;;;5032296;28;2495;-66
2021/04/01 05:04:43;;;;;;;;;;;;;;;;;;5036049;28;1963;-63
2021/04/01 05:07:08;;;;;;;;;;;;;;;;;;5038366;28;1714;-66
2021/04/01 05:09:34;;;;;;;;;;;;;;;;;;5045208;28;1010;-65
2021/04/01 05:11:59;;;;;;;;;;;;;;;;;;5035088;28;1853;-65
2021/04/01 05:14:25;;;;;;;;;;;;;;;;;;5033908;28;1786;-65
2021/04/01 05:16:50;;;;;;;;;;;;;;;;;;5045662;28;1056;-65
2021/04/01 05:19:17;;;;;;;;;;;;;;;;;;5037755;28;1934;-64
2021/04/01 05:21:55;;;;;;;;;;;;;;;;;;5039926;28;1869;-65
2021/04/01 05:24:23;;;;;;;;;;;;;;;;;;5036905;28;1973;-65
2021/04/01 05:29:17;;;;;;;;;;;;;;;;;;5042795;28;997;-64
2021/04/01 05:31:43;;;;;;;;;;;;;;;;;;5042404;28;1879;-65
2021/04/01 05:34:09;;;;;;;;;;;;;;;;;;5034148;28;1737;-67
2021/04/01 05:36:45;;;;;;;;;;;;;;;;;;5038562;28;1125;-65
2021/04/01 05:39:12;;;;;;;;;;;;;;;;;;5042582;28;1953;-64
2021/04/01 05:41:39;;;;;;;;;;;;;;;;;;5038009;28;1844;-65
2021/04/01 05:44:24;;;;;;;;;;;;;;;;;;5030045;28;2174;-63
2021/04/01 05:47:05;;;;;;;;;;;;;;;;;;5027788;28;2389;-65
2021/04/01 05:49:44;;;;;;;;;;;;;;;;;;5029657;28;1806;-69
2021/04/01 05:58:06;;;;;;;;;;;;;;;;;;5040497;28;1999;-63
2021/04/01 06:05:35;;;;;;;;;;;;;;;;;;5045409;28;1897;-62
2021/04/01 06:08:10;;;;;;;;;;;;;;;;;;5040564;28;1819;-63
2021/04/01 06:10:36;;;;;;;;;;;;;;;;;;5035834;28;1857;-64
2021/04/01 06:13:09;;;;;;;;;;;;;;;;;;5039335;28;1797;-62
2021/04/01 06:15:35;;;;;;;;;;;;;;;;;;5045991;28;1138;-63
2021/04/01 06:18:07;;;;;;;;;;;;;;;;;;5038071;28;1709;-64
2021/04/01 06:20:33;;;;;;;;;;;;;;;;;;5043784;28;1799;-64
2021/04/01 06:23:01;;;;;;;;;;;;;;;;;;5035055;28;1046;-63
2021/04/01 06:25:28;;;;;;;;;;;;;;;;;;5038838;28;1914;-64
2021/04/01 06:27:56;;;;;;;;;;;;;;;;;;5035649;28;1706;-64
2021/04/01 06:33:03;;;;;;;;;;;;;;;;;;5033170;28;989;-68
2021/04/01 06:35:33;;;;;;;;;;;;;;;;;;5045456;28;930;-68
2021/04/01 06:38:19;;;;;;;;;;;;;;;;;;5035231;28;1845;-62
2021/04/01 06:40:55;;;;;;;;;;;;;;;;;;5036730;28;1750;-65
2021/04/01 06:43:48;;;;;;;;;;;;;;;;;;5037675;28;1926;-62
2021/04/01 06:46:15;;;;;;;;;;;;;;;;;;5026100;28;1122;-63
2021/04/01 06:51:25;;;;;;;;;;;;;;;;;;5038453;28;1783;-64
2021/04/01 06:54:08;;;;;;;;;;;;;;;;;;5039254;28;1690;-63
2021/04/01 06:56:44;;;;;;;;;;;;;;;;;;5042728;28;1201;-62
2021/04/01 06:59:22;;;;;;;;;;;;;;;;;;5038511;28;1775;-62
2021/04/01 07:01:55;;;;;;;;;;;;;;;;;;5034514;28;1800;-62
2021/04/01 07:04:22;;;;;;;;;;;;;;;;;;5033892;28;1902;-63
2021/04/01 07:06:53;;;;;;;;;;;;;;;;;;5040635;28;1698;-68
2021/04/01 07:12:19;;;;;;;;;;;;;;;;;;5038323;28;1774;-64
2021/04/01 07:14:47;;;;;;;;;;;;;;;;;;5036906;28;1674;-63
2021/04/01 07:46:58;;;;;;;;;;;;;;;;;;5036887;28;1703;-63
2021/04/01 07:49:27;;;;;;;;;;;;;;;;;;5038799;28;1763;-61
2021/04/01 07:52:01;;;;;;;;;;;;;;;;;;5031248;28;1794;-65
2021/04/01 07:54:40;;;;;;;;;;;;;;;;;;5043531;28;1771;-63
2021/04/01 07:58:15;;;;;;;;;;;;;;;;;;5036441;28;1070;-63
2021/04/01 08:00:10;;;;;;;;;;;;;;;;;;5031829;28;1900;-61
2021/04/01 08:05:23;;;;;;;;;;;;;;;;;;5031011;28;1893;-62
2021/04/01 08:07:53;;;;;;;;;;;;;;;;;;5035710;28;1912;-62
2021/04/01 08:10:22;;;;;;;;;;;;;;;;;;5033352;28;1625;-62
2021/04/01 08:12:50;;;;;;;;;;;;;;;;;;5044760;28;1294;-64
2021/04/01 08:15:20;;;;;;;;;;;;;;;;;;5038392;28;1953;-62
2021/04/01 08:17:54;;;;;;;;;;;;;;;;;;5035510;28;1683;-62
2021/04/01 08:20:26;;;;;;;;;;;;;;;;;;5043719;28;1631;-62
2021/04/01 08:23:05;;;;;;;;;;;;;;;;;;5035138;28;1936;-63
2021/04/01 08:25:46;;;;;;;;;;;;;;;;;;5036880;28;2015;-62
2021/04/01 08:28:24;;;;;;;;;;;;;;;;;;5039767;28;1798;-63
2021/04/01 08:36:00;;;;;;;;;;;;;;;;;;5031360;28;1048;-63
2021/04/01 08:38:25;;;;;;;;;;;;;;;;;;5037768;28;1718;-63
2021/04/01 08:40:51;;;;;;;;;;;;;;;;;;5038654;28;1731;-63
2021/04/01 08:43:28;;;;;;;;;;;;;;;;;;5038913;28;1774;-64
2021/04/01 08:46:03;;;;;;;;;;;;;;;;;;5031853;28;993;-62
2021/04/01 08:48:28;;;;;;;;;;;;;;;;;;5031693;28;1690;-62
2021/04/01 08:50:54;;;;;;;;;;;;;;;;;;5038424;28;1846;-63
2021/04/01 08:53:35;;;;;;;;;;;;;;;;;;5037863;28;1821;-63
2021/04/01 08:56:25;;;;;;;;;;;;;;;;;;5040103;28;1440;-62
2021/04/01 08:59:09;;;;;;;;;;;;;;;;;;5034941;28;1793;-62
2021/04/01 09:01:41;;;;;;;;;;;;;;;;;;5029379;28;1679;-62
2021/04/01 09:04:07;;;;;;;;;;;;;;;;;;5038531;28;1996;-62
2021/04/01 09:06:40;;;;;;;;;;;;;;;;;;5043326;28;1816;-61
2021/04/01 09:09:12;;;;;;;;;;;;;;;;;;5036190;28;1714;-62
2021/04/01 09:11:45;;;;;;;;;;;;;;;;;;5035466;28;1048;-64
2021/04/01 09:14:22;;;;;;;;;;;;;;;;;;5032498;28;1681;-62
2021/04/01 09:17:19;;;;;;;;;;;;;;;;;;5034571;28;981;-61
2021/04/01 09:19:45;;;;;;;;;;;;;;;;;;5037344;28;1366;-64
2021/04/01 09:22:26;;;;;;;;;;;;;;;;;;5032941;28;1838;-61
2021/04/01 09:25:02;;;;;;;;;;;;;;;;;;5031586;28;1973;-62
2021/04/01 09:27:28;;;;;;;;;;;;;;;;;;5032702;28;1671;-63
2021/04/01 09:30:01;;;;;;;;;;;;;;;;;;5037642;28;1718;-63
2021/04/01 09:32:27;;;;;;;;;;;;;;;;;;5036802;28;1030;-62
2021/04/01 09:34:55;;;;;;;;;;;;;;;;;;5034226;28;1778;-62
2021/04/01 09:37:21;;;;;;;;;;;;;;;;;;5041284;28;1647;-63
2021/04/01 09:39:48;;;;;;;;;;;;;;;;;;5039974;28;977;-63
2021/04/01 09:42:15;;;;;;;;;;;;;;;;;;5036379;28;1802;-62
2021/04/01 09:44:51;;;;;;;;;;;;;;;;;;5036213;28;1968;-62
2021/04/01 09:47:24;;;;;;;;;;;;;;;;;;5031649;28;1088;-61
2021/04/01 09:50:07;;;;;;;;;;;;;;;;;;5039130;28;1717;-62
2021/04/01 09:52:34;;;;;;;;;;;;;;;;;;5038287;28;1854;-61
2021/04/01 09:55:01;;;;;;;;;;;;;;;;;;5033147;28;1600;-61
2021/04/01 09:57:39;;;;;;;;;;;;;;;;;;5032027;28;1720;-62
2021/04/01 10:00:16;;;;;;;;;;;;;;;;;;5035620;28;1032;-62
2021/04/01 10:02:43;;;;;;;;;;;;;;;;;;5037434;28;1793;-62
2021/04/01 10:05:11;;;;;;;;;;;;;;;;;;5028350;28;1953;-61
2021/04/01 10:07:38;;;;;;;;;;;;;;;;;;5034785;28;1782;-61
2021/04/01 10:10:05;;;;;;;;;;;;;;;;;;5040954;28;1855;-62
2021/04/01 10:12:34;;;;;;;;;;;;;;;;;;5037747;28;990;-62
2021/04/01 10:15:02;;;;;;;;;;;;;;;;;;5041533;28;1937;-62
2021/04/01 10:17:28;;;;;;;;;;;;;;;;;;5039432;28;1821;-62
2021/04/01 10:19:56;;;;;;;;;;;;;;;;;;5043069;28;1005;-62
2021/04/01 10:22:27;;;;;;;;;;;;;;;;;;5041046;28;1710;-61
2021/04/01 10:25:02;;;;;;;;;;;;;;;;;;5033684;28;1967;-65
2021/04/01 10:27:33;;;;;;;;;;;;;;;;;;5041119;28;914;-62
2021/04/01 10:29:59;;;;;;;;;;;;;;;;;;5040523;28;1877;-62
2021/04/01 10:32:31;;;;;;;;;;;;;;;;;;5037513;28;1885;-61
2021/04/01 10:35:00;;;;;;;;;;;;;;;;;;5037230;28;1159;-64
2021/04/01 10:37:26;;;;;;;;;;;;;;;;;;5033781;28;1734;-62
2021/04/01 10:39:52;;;;;;;;;;;;;;;;;;5039008;28;1742;-62
2021/04/01 10:42:24;;;;;;;;;;;;;;;;;;5034644;28;1188;-63
2021/04/01 10:45:02;;;;;;;;;;;;;;;;;;5044534;28;1917;-61
2021/04/01 10:47:37;;;;;;;;;;;;;;;;;;5039497;28;1793;-63
2021/04/01 10:50:03;;;;;;;;;;;;;;;;;;5037093;28;1717;-61
2021/04/01 10:52:33;;;;;;;;;;;;;;;;;;5034675;28;1761;-64
2021/04/01 10:54:59;;;;;;;;;;;;;;;;;;5037467;28;1790;-63
2021/04/01 10:57:26;;;;;;;;;;;;;;;;;;5038747;28;1225;-63
2021/04/01 10:59:52;;;;;;;;;;;;;;;;;;5037937;28;1541;-61
2021/04/01 11:02:19;;;;;;;;;;;;;;;;;;5034759;28;1695;-61
2021/04/01 11:04:54;;;;;;;;;;;;;;;;;;5032592;28;1910;-62
2021/04/01 11:07:19;;;;;;;;;;;;;;;;;;5037409;28;935;-62
2021/04/01 11:09:49;;;;;;;;;;;;;;;;;;5037674;28;1849;-63
2021/04/01 11:12:17;;;;;;;;;;;;;;;;;;5040091;28;1767;-62
2021/04/01 11:14:45;;;;;;;;;;;;;;;;;;5033307;28;1853;-62
2021/04/01 11:17:13;;;;;;;;;;;;;;;;;;5037744;28;1845;-63
2021/04/01 11:19:40;;;;;;;;;;;;;;;;;;5039790;28;984;-62
2021/04/01 11:22:05;;;;;;;;;;;;;;;;;;5041764;28;1722;-62
2021/04/01 11:24:33;;;;;;;;;;;;;;;;;;5035408;28;1992;-62
2021/04/01 11:27:12;;;;;;;;;;;;;;;;;;5042413;28;978;-62
2021/04/01 11:29:38;;;;;;;;;;;;;;;;;;5039162;28;1830;-64
2021/04/01 11:32:14;;;;;;;;;;;;;;;;;;5040074;28;1913;-62
2021/04/01 11:34:42;;;;;;;;;;;;;;;;;;5035995;28;1797;-63
2021/04/01 11:37:09;;;;;;;;;;;;;;;;;;5037785;28;1810;-61
2021/04/01 11:39:39;;;;;;;;;;;;;;;;;;5041377;28;1013;-62
2021/04/01 11:42:08;;;;;;;;;;;;;;;;;;5037761;28;1758;-63
2021/04/01 11:44:34;;;;;;;;;;;;;;;;;;5040857;28;1906;-62
2021/04/01 11:46:59;;;;;;;;;;;;;;;;;;5039976;28;1097;-62
2021/04/01 11:49:25;;;;;;;;;;;;;;;;;;5040198;28;1933;-62
2021/04/01 11:51:51;;;;;;;;;;;;;;;;;;5042918;28;1759;-62
2021/04/01 11:54:23;;;;;;;;;;;;;;;;;;5044240;28;1721;-62
2021/04/01 11:56:49;;;;;;;;;;;;;;;;;;5044072;28;1037;-62
2021/04/01 11:59:18;;;;;;;;;;;;;;;;;;5044334;28;1809;-63
2021/04/01 12:01:51;;;;;;;;;;;;;;;;;;5039003;28;1794;-62
2021/04/01 12:04:18;;;;;;;;;;;;;;;;;;5039511;28;1890;-62
2021/04/01 12:06:44;;;;;;;;;;;;;;;;;;5037168;28;1834;-63
2021/04/01 12:09:10;;;;;;;;;;;;;;;;;;5040159;28;1699;-61
2021/04/01 12:11:42;;;;;;;;;;;;;;;;;;5038672;28;962;-61
2021/04/01 12:14:09;;;;;;;;;;;;;;;;;;5044724;28;1698;-62
2021/04/01 12:16:34;;;;;;;;;;;;;;;;;;5045188;28;1184;-62
2021/04/01 12:19:00;;;;;;;;;;;;;;;;;;5041129;28;2067;-62
2021/04/01 12:21:26;;;;;;;;;;;;;;;;;;5044379;28;1644;-62
2021/04/01 12:23:52;;;;;;;;;;;;;;;;;;5036721;28;1874;-62
2021/04/01 12:26:18;;;;;;;;;;;;;;;;;;5040307;28;915;-62
2021/04/01 12:28:54;;;;;;;;;;;;;;;;;;5045703;28;1658;-62
2021/04/01 12:31:27;;;;;;;;;;;;;;;;;;5042232;28;1706;-62
2021/04/01 12:33:52;;;;;;;;;;;;;;;;;;5039961;28;1817;-62
2021/04/01 12:36:29;;;;;;;;;;;;;;;;;;5036257;28;966;-62
2021/04/01 12:38:55;;;;;;;;;;;;;;;;;;5043846;28;1960;-63
2021/04/01 12:41:22;;;;;;;;;;;;;;;;;;5042330;28;1845;-62
2021/04/01 12:43:48;;;;;;;;;;;;;;;;;;5034511;28;1902;-63
2021/04/01 12:46:13;;;;;;;;;;;;;;;;;;5037184;28;1088;-63
2021/04/01 12:48:41;;;;;;;;;;;;;;;;;;5035667;28;1821;-64
2021/04/01 12:51:07;;;;;;;;;;;;;;;;;;5042987;28;1723;-63
2021/04/01 12:53:33;;;;;;;;;;;;;;;;;;5041537;28;982;-63
2021/04/01 12:56:11;;;;;;;;;;;;;;;;;;5033231;28;1925;-61
2021/04/01 12:58:48;;;;;;;;;;;;;;;;;;5040031;28;1849;-62
2021/04/01 13:01:21;;;;;;;;;;;;;;;;;;5037829;28;1798;-63
2021/04/01 13:03:46;;;;;;;;;;;;;;;;;;5036589;28;1963;-63
2021/04/01 13:06:17;;;;;;;;;;;;;;;;;;5034157;28;965;-63
2021/04/01 13:11:18;;;;;;;;;;;;;;;;;;5031177;28;1885;-63
2021/04/01 13:13:44;;;;;;;;;;;;;;;;;;5038432;28;1697;-62
2021/04/01 13:16:10;;;;;;;;;;;;;;;;;;5037674;28;1135;-62
2021/04/01 13:18:36;;;;;;;;;;;;;;;;;;5036169;28;1889;-62
2021/04/01 13:21:02;;;;;;;;;;;;;;;;;;5041419;28;1714;-62
2021/04/01 13:25:57;;;;;;;;;;;;;;;;;;5035197;28;1945;-62
2021/04/01 13:28:22;;;;;;;;;;;;;;;;;;5037767;28;1620;-63
2021/04/01 13:30:55;;;;;;;;;;;;;;;;;;5032722;28;1056;-62
2021/04/01 13:33:32;;;;;;;;;;;;;;;;;;5035377;28;890;-63
2021/04/01 13:36:03;;;;;;;;;;;;;;;;;;5031133;28;1743;-63
2021/04/01 13:38:37;;;;;;;;;;;;;;;;;;5030992;28;1732;-63
2021/04/01 13:41:04;;;;;;;;;;;;;;;;;;5038790;28;1730;-63
2021/04/01 13:43:30;;;;;;;;;;;;;;;;;;5036165;28;986;-63
2021/04/01 13:45:56;;;;;;;;;;;;;;;;;;5037921;28;1993;-62
2021/04/01 13:48:28;;;;;;;;;;;;;;;;;;5041740;28;1801;-63
2021/04/01 13:51:02;;;;;;;;;;;;;;;;;;5045934;28;1825;-63
2021/04/01 13:56:20;;;;;;;;;;;;;;;;;;5043061;28;1592;-62
2021/04/01 14:09:47;;;;;;;;;;;;;;;;;;5042344;28;1822;-64
2021/04/01 14:12:16;;;;;;;;;;;;;;;;;;5044242;28;1661;-62
2021/04/01 14:14:42;;;;;;;;;;;;;;;;;;5045112;28;1837;-62
2021/04/01 14:17:08;;;;;;;;;;;;;;;;;;5040883;28;1830;-64
2021/04/01 14:19:34;;;;;;;;;;;;;;;;;;5043291;28;1007;-62
2021/04/01 14:22:01;;;;;;;;;;;;;;;;;;5045841;28;1769;-62
2021/04/01 14:29:59;;;;;;;;;;;;;;;;;;5032520;28;1909;-65
2021/04/01 14:32:28;;;;;;;;;;;;;;;;;;5044744;28;1743;-63
2021/04/01 14:34:56;;;;;;;;;;;;;;;;;;5045253;28;1124;-63
2021/04/01 14:37:25;;;;;;;;;;;;;;;;;;5040819;28;1963;-65
2021/04/01 14:39:53;;;;;;;;;;;;;;;;;;5037444;28;1703;-63
2021/04/01 14:42:22;;;;;;;;;;;;;;;;;;5033094;28;1739;-62
2021/04/01 14:44:48;;;;;;;;;;;;;;;;;;5035505;28;1983;-63
2021/04/01 14:47:14;;;;;;;;;;;;;;;;;;5038576;28;1096;-62
2021/04/01 14:49:40;;;;;;;;;;;;;;;;;;5041074;28;1857;-62
2021/04/01 14:52:05;;;;;;;;;;;;;;;;;;5041461;28;1840;-62
2021/04/01 14:54:31;;;;;;;;;;;;;;;;;;5046182;28;1865;-62
2021/04/01 14:57:05;;;;;;;;;;;;;;;;;;5044803;28;1066;-62
2021/04/01 14:59:32;;;;;;;;;;;;;;;;;;5043943;28;1932;-62
2021/04/01 15:01:58;;;;;;;;;;;;;;;;;;5039046;28;1790;-62
2021/04/01 15:04:24;;;;;;;;;;;;;;;;;;5047866;28;1973;-62
2021/04/01 15:06:50;;;;;;;;;;;;;;;;;;5046447;28;1707;-63
2021/04/01 15:09:19;;;;;;;;;;;;;;;;;;5043615;28;994;-63
2021/04/01 15:11:46;;;;;;;;;;;;;;;;;;5043537;28;1948;-62
2021/04/01 15:14:12;;;;;;;;;;;;;;;;;;5042549;28;1864;-62
2021/04/01 15:16:38;;;;;;;;;;;;;;;;;;5048445;28;1114;-63
2021/04/01 15:19:04;;;;;;;;;;;;;;;;;;5043261;28;1975;-64
2021/04/01 15:21:30;;;;;;;;;;;;;;;;;;5042116;28;1807;-64
2021/04/01 15:23:57;;;;;;;;;;;;;;;;;;5039361;28;1894;-63
2021/04/01 15:26:25;;;;;;;;;;;;;;;;;;5037562;28;1429;-64
2021/04/01 15:28:51;;;;;;;;;;;;;;;;;;5035255;28;1794;-64
2021/04/01 15:31:17;;;;;;;;;;;;;;;;;;5037235;28;1649;-63
2021/04/01 15:33:43;;;;;;;;;;;;;;;;;;5041792;28;1080;-63
2021/04/01 15:36:09;;;;;;;;;;;;;;;;;;5037521;28;1849;-63
2021/04/01 15:38:34;;;;;;;;;;;;;;;;;;5035213;28;1725;-62
2021/04/01 15:41:00;;;;;;;;;;;;;;;;;;5038522;28;1312;-63
2021/04/01 15:43:26;;;;;;;;;;;;;;;;;;5033470;28;1945;-64
2021/04/01 15:45:53;;;;;;;;;;;;;;;;;;5034740;28;1922;-63
2021/04/01 15:48:19;;;;;;;;;;;;;;;;;;5039389;28;1016;-64
2021/04/01 15:50:45;;;;;;;;;;;;;;;;;;5036572;28;2218;-64
2021/04/01 15:53:11;;;;;;;;;;;;;;;;;;5040448;28;1929;-64
2021/04/01 15:55:36;;;;;;;;;;;;;;;;;;5040415;28;1763;-63
2021/04/01 15:58:02;;;;;;;;;;;;;;;;;;5042715;28;1061;-64
2021/04/01 16:00:27;;;;;;;;;;;;;;;;;;5034682;28;1959;-64
2021/04/01 16:02:53;;;;;;;;;;;;;;;;;;5033412;28;1694;-64
2021/04/01 16:05:19;;;;;;;;;;;;;;;;;;5041782;28;1890;-63
2021/04/01 16:07:45;;;;;;;;;;;;;;;;;;5036573;28;1814;-65
2021/04/01 16:10:11;;;;;;;;;;;;;;;;;;5035877;28;1652;-64
2021/04/01 16:12:36;;;;;;;;;;;;;;;;;;5035269;28;1651;-63
2021/04/01 16:15:04;;;;;;;;;;;;;;;;;;5036209;28;1753;-64
2021/04/01 16:17:29;;;;;;;;;;;;;;;;;;5033157;28;1813;-63
2021/04/01 16:19:55;;;;;;;;;;;;;;;;;;5035098;28;1111;-64
2021/04/01 16:22:20;;;;;;;;;;;;;;;;;;5034551;28;1718;-64
2021/04/01 16:24:46;;;;;;;;;;;;;;;;;;5038878;28;1937;-64
2021/04/01 16:27:12;;;;;;;;;;;;;;;;;;5041934;28;1120;-63
2021/04/01 16:29:38;;;;;;;;;;;;;;;;;;5038509;28;1847;-64
2021/04/01 16:32:05;;;;;;;;;;;;;;;;;;5036926;28;1710;-64
2021/04/01 16:34:33;;;;;;;;;;;;;;;;;;5031994;28;1013;-65
2021/04/01 16:36:59;;;;;;;;;;;;;;;;;;5038416;28;1778;-63
2021/04/01 16:39:29;;;;;;;;;;;;;;;;;;5037209;28;1721;-63
2021/04/01 16:41:55;;;;;;;;;;;;;;;;;;5044164;28;1781;-63
2021/04/01 16:44:22;;;;;;;;;;;;;;;;;;5035188;28;1914;-63
2021/04/01 16:46:48;;;;;;;;;;;;;;;;;;5036013;28;1128;-63
2021/04/01 16:49:13;;;;;;;;;;;;;;;;;;5031333;28;1806;-63
2021/04/01 16:51:39;;;;;;;;;;;;;;;;;;5035002;28;1654;-63
2021/04/01 16:54:12;;;;;;;;;;;;;;;;;;5031315;28;2328;-64
2021/04/01 16:56:38;;;;;;;;;;;;;;;;;;5046541;28;1057;-63
2021/04/01 16:59:06;;;;;;;;;;;;;;;;;;5033714;28;2008;-63
2021/04/01 17:01:31;;;;;;;;;;;;;;;;;;5030122;28;1810;-63
2021/04/01 17:03:57;;;;;;;;;;;;;;;;;;5042274;28;1878;-63
2021/04/01 17:06:22;;;;;;;;;;;;;;;;;;5037979;28;1794;-63
2021/04/01 17:08:48;;;;;;;;;;;;;;;;;;5034079;28;1786;-64
2021/04/01 17:11:16;;;;;;;;;;;;;;;;;;5033116;28;1037;-63
2021/04/01 17:13:41;;;;;;;;;;;;;;;;;;5030374;28;1881;-63
2021/04/01 17:16:07;;;;;;;;;;;;;;;;;;5038772;28;1100;-63
2021/04/01 17:18:34;;;;;;;;;;;;;;;;;;5032474;28;2549;-64
2021/04/01 17:21:03;;;;;;;;;;;;;;;;;;5031692;28;894;-63
2021/04/01 17:23:29;;;;;;;;;;;;;;;;;;5030788;28;1977;-63
2021/04/01 17:25:54;;;;;;;;;;;;;;;;;;5033019;28;1918;-64
2021/04/01 17:28:20;;;;;;;;;;;;;;;;;;5036376;28;1787;-62
2021/04/01 17:30:46;;;;;;;;;;;;;;;;;;5038119;28;1444;-66
2021/04/01 17:33:12;;;;;;;;;;;;;;;;;;5035849;28;1818;-63
2021/04/01 17:35:37;;;;;;;;;;;;;;;;;;5037180;28;1187;-62
2021/04/01 17:38:04;;;;;;;;;;;;;;;;;;5034688;28;1786;-64
2021/04/01 17:40:30;;;;;;;;;;;;;;;;;;5031240;28;1719;-64
2021/04/01 17:42:55;;;;;;;;;;;;;;;;;;5031232;28;1655;-64
2021/04/01 17:45:22;;;;;;;;;;;;;;;;;;5041121;28;1906;-64
2021/04/01 17:47:48;;;;;;;;;;;;;;;;;;5034198;28;1563;-64
2021/04/01 17:50:15;;;;;;;;;;;;;;;;;;5031744;28;1730;-64
2021/04/01 17:52:40;;;;;;;;;;;;;;;;;;5034562;28;1651;-64
2021/04/01 17:55:07;;;;;;;;;;;;;;;;;;5043083;28;1759;-64
2021/04/01 17:57:35;;;;;;;;;;;;;;;;;;5038349;28;1279;-64
2021/04/01 18:00:13;;;;;;;;;;;;;;;;;;5028009;28;1655;-64
2021/04/01 18:02:41;;;;;;;;;;;;;;;;;;5029674;28;1730;-64
2021/04/01 18:28:55;;;;;;;;;;;;;;;;;;5032584;28;1759;-64
2021/04/01 18:31:36;;;;;;;;;;;;;;;;;;5038040;28;961;-64
2021/04/01 18:34:11;;;;;;;;;;;;;;;;;;5030347;28;1686;-64
2021/04/01 18:39:33;;;;;;;;;;;;;;;;;;5042236;28;1782;-64
2021/04/01 18:42:02;;;;;;;;;;;;;;;;;;5035901;28;1013;-64
2021/04/01 18:44:28;;;;;;;;;;;;;;;;;;5039836;28;1977;-64
2021/04/01 18:47:02;;;;;;;;;;;;;;;;;;5042633;28;1902;-64
2021/04/01 18:49:32;;;;;;;;;;;;;;;;;;5036517;28;1850;-64
2021/04/01 18:52:09;;;;;;;;;;;;;;;;;;5034926;28;1762;-64
2021/04/01 18:57:25;;;;;;;;;;;;;;;;;;5029592;28;1281;-64
2021/04/01 18:59:58;;;;;;;;;;;;;;;;;;5035123;28;1921;-64
2021/04/01 19:02:24;;;;;;;;;;;;;;;;;;5035845;28;1723;-64
2021/04/01 19:05:01;;;;;;;;;;;;;;;;;;5034184;28;1976;-64
2021/04/01 19:07:32;;;;;;;;;;;;;;;;;;5035482;28;1766;-64
2021/04/01 19:21:31;;;;;;;;;;;;;;;;;;5028772;28;1227;-64
2021/04/01 19:23:57;;;;;;;;;;;;;;;;;;5034313;28;1973;-64
2021/04/01 19:26:23;;;;;;;;;;;;;;;;;;5036532;28;1937;-64
2021/04/01 19:28:48;;;;;;;;;;;;;;;;;;5032953;28;1794;-64
2021/04/01 19:31:14;;;;;;;;;;;;;;;;;;5047590;28;1354;-63
2021/04/01 19:33:40;;;;;;;;;;;;;;;;;;5034603;28;1726;-65
2021/04/01 19:36:06;;;;;;;;;;;;;;;;;;5034867;28;1675;-65
2021/04/01 19:38:32;;;;;;;;;;;;;;;;;;5038484;28;1249;-65